Time;durP1;ratioP1;P1;durP2;ratioP2;P2;SDS_P1;SDS_P2;PMS_P1;PMS_P2;Temp;Humidity;BMP_temperature;BMP_pressure;BME280_temperature;BME280_humidity;BME280_pressure;Samples;Min_cycle;Max_cycle;Signal;HPM_P1;HPM_P2
2022/05/14 00:01:09;;;;;;;5.20;4.70;;;;;;;;;;5081703;28;25070;-45
2022/05/14 00:03:34;;;;;;;5.53;5.10;;;;;;;;;;5082909;28;24415;-44
2022/05/14 00:06:01;;;;;;;5.17;4.67;;;;;;;;;;5085788;28;24433;-45
2022/05/14 00:08:27;;;;;;;5.70;5.20;;;;;;;;;;5077162;28;25075;-44
2022/05/14 00:13:38;;;;;;;5.20;4.80;;;;;;;;;;5080976;28;24893;-45
2022/05/14 00:16:03;;;;;;;7.20;4.90;;;;;;;;;;5077497;28;24790;-46
2022/05/14 00:18:28;;;;;;;5.22;4.50;;;;;;;;;;5079540;28;25069;-45
2022/05/14 00:20:54;;;;;;;5.53;4.90;;;;;;;;;;5084679;28;24479;-45
2022/05/14 00:23:19;;;;;;;5.75;5.25;;;;;;;;;;5078023;28;25216;-45
2022/05/14 00:25:44;;;;;;;5.70;5.20;;;;;;;;;;5086726;28;24405;-45
2022/05/14 00:28:10;;;;;;;5.60;5.20;;;;;;;;;;5075029;28;24430;-50
2022/05/14 00:30:36;;;;;;;5.70;5.20;;;;;;;;;;5082849;28;24442;-45
2022/05/14 00:33:01;;;;;;;7.57;5.13;;;;;;;;;;5079110;28;24418;-44
2022/05/14 00:35:27;;;;;;;6.33;5.20;;;;;;;;;;5087312;28;24436;-45
2022/05/14 00:37:52;;;;;;;6.13;5.70;;;;;;;;;;5086960;28;24852;-45
2022/05/14 00:40:23;;;;;;;5.78;5.38;;;;;;;;;;5085227;28;24507;-44
2022/05/14 00:42:48;;;;;;;6.33;5.70;;;;;;;;;;5084855;28;24575;-45
2022/05/14 00:45:14;;;;;;;6.90;6.00;;;;;;;;;;5087378;28;24505;-45
2022/05/14 00:47:41;;;;;;;6.00;5.50;;;;;;;;;;5089262;28;24456;-44
2022/05/14 00:50:15;;;;;;;6.57;5.85;;;;;;;;;;5088272;28;24966;-45
2022/05/14 00:52:41;;;;;;;6.75;5.90;;;;;;;;;;5085026;28;24425;-44
2022/05/14 00:55:06;;;;;;;5.97;5.38;;;;;;;;;;5086680;28;24976;-44
2022/05/14 00:57:35;;;;;;;6.00;5.50;;;;;;;;;;5088461;28;24969;-51
2022/05/14 01:00:03;;;;;;;5.80;5.30;;;;;;;;;;5089050;28;24650;-44
2022/05/14 01:02:28;;;;;;;5.88;5.45;;;;;;;;;;5086053;28;24484;-48
2022/05/14 01:04:54;;;;;;;5.97;5.47;;;;;;;;;;5087781;28;24975;-45
2022/05/14 01:07:20;;;;;;;6.77;5.90;;;;;;;;;;5086167;28;24445;-44
2022/05/14 01:09:48;;;;;;;5.85;5.38;;;;;;;;;;5087364;28;24433;-45
2022/05/14 01:12:14;;;;;;;5.40;5.00;;;;;;;;;;5085872;28;24444;-44
2022/05/14 01:14:39;;;;;;;5.20;4.80;;;;;;;;;;5087577;28;24434;-44
2022/05/14 01:17:04;;;;;;;7.00;5.10;;;;;;;;;;5086416;28;25027;-44
2022/05/14 01:19:30;;;;;;;5.82;5.43;;;;;;;;;;5082757;28;24422;-44
2022/05/14 01:22:03;;;;;;;5.30;4.90;;;;;;;;;;5083753;28;24441;-44
2022/05/14 01:27:19;;;;;;;5.53;5.03;;;;;;;;;;5086302;28;24576;-45
2022/05/14 01:29:46;;;;;;;5.60;5.10;;;;;;;;;;5087883;28;24513;-45
2022/05/14 01:32:12;;;;;;;6.05;5.55;;;;;;;;;;5089067;28;24422;-45
2022/05/14 01:34:37;;;;;;;5.43;4.95;;;;;;;;;;5087531;28;24586;-45
2022/05/14 01:37:03;;;;;;;5.60;5.20;;;;;;;;;;5086846;28;24438;-45
2022/05/14 01:39:28;;;;;;;5.40;4.90;;;;;;;;;;5083092;28;24960;-46
2022/05/14 01:41:54;;;;;;;5.30;4.90;;;;;;;;;;5085180;28;24432;-45
2022/05/14 01:44:19;;;;;;;5.40;4.90;;;;;;;;;;5085235;28;24518;-45
2022/05/14 01:46:45;;;;;;;9.47;5.70;;;;;;;;;;5082345;28;24522;-45
2022/05/14 01:49:10;;;;;;;5.30;4.90;;;;;;;;;;5088932;28;24422;-43
2022/05/14 01:51:35;;;;;;;6.27;5.27;;;;;;;;;;5087759;28;24509;-45
2022/05/14 01:54:01;;;;;;;5.53;5.03;;;;;;;;;;5084451;28;24513;-44
2022/05/14 01:56:26;;;;;;;5.20;4.80;;;;;;;;;;5087609;28;24418;-45
2022/05/14 01:58:51;;;;;;;6.05;5.55;;;;;;;;;;5087282;28;24422;-44
2022/05/14 02:01:21;;;;;;;5.70;5.20;;;;;;;;;;5087182;28;24513;-44
2022/05/14 02:03:57;;;;;;;6.07;5.47;;;;;;;;;;5084166;28;24414;-45
2022/05/14 02:06:23;;;;;;;5.00;4.60;;;;;;;;;;5089049;28;24382;-45
2022/05/14 02:08:48;;;;;;;5.30;4.50;;;;;;;;;;5085316;28;24445;-44
2022/05/14 02:11:13;;;;;;;5.18;4.78;;;;;;;;;;5085748;28;24449;-45
2022/05/14 02:13:39;;;;;;;5.10;4.70;;;;;;;;;;5084731;28;25015;-45
2022/05/14 02:16:04;;;;;;;5.30;4.80;;;;;;;;;;5085110;28;25320;-44
2022/05/14 02:18:29;;;;;;;5.30;4.80;;;;;;;;;;5086505;28;24976;-45
2022/05/14 02:20:55;;;;;;;4.80;4.50;;;;;;;;;;5086285;28;24422;-45
2022/05/14 02:23:20;;;;;;;5.80;5.33;;;;;;;;;;5085522;28;24425;-45
2022/05/14 02:25:46;;;;;;;5.50;5.10;;;;;;;;;;5086925;28;24454;-45
2022/05/14 02:28:11;;;;;;;5.80;5.30;;;;;;;;;;5086694;28;24432;-45
2022/05/14 02:30:36;;;;;;;5.87;5.27;;;;;;;;;;5083364;28;24846;-44
2022/05/14 02:33:02;;;;;;;5.90;5.30;;;;;;;;;;5086920;28;24492;-44
2022/05/14 02:35:27;;;;;;;5.33;4.93;;;;;;;;;;5073376;28;24448;-45
2022/05/14 02:37:52;;;;;;;5.70;5.30;;;;;;;;;;5088524;28;24419;-44
2022/05/14 02:40:17;;;;;;;5.20;4.80;;;;;;;;;;5086530;28;24928;-45
2022/05/14 02:42:43;;;;;;;5.40;5.00;;;;;;;;;;5078837;28;24422;-45
2022/05/14 02:45:08;;;;;;;5.90;5.50;;;;;;;;;;5080405;28;24418;-45
2022/05/14 02:47:33;;;;;;;6.00;5.33;;;;;;;;;;5075189;28;24491;-45
2022/05/14 02:49:58;;;;;;;5.70;5.20;;;;;;;;;;5084192;28;24438;-44
2022/05/14 02:52:24;;;;;;;5.68;5.18;;;;;;;;;;5077457;28;25026;-45
2022/05/14 02:54:49;;;;;;;5.77;5.27;;;;;;;;;;5081554;28;24430;-45
2022/05/14 02:57:15;;;;;;;5.80;5.37;;;;;;;;;;5078649;28;24463;-45
2022/05/14 02:59:40;;;;;;;5.70;5.20;;;;;;;;;;5082937;28;24983;-45
2022/05/14 03:02:05;;;;;;;6.30;5.60;;;;;;;;;;5077942;28;24445;-45
2022/05/14 03:04:32;;;;;;;5.40;5.00;;;;;;;;;;5082428;28;24997;-44
2022/05/14 03:06:57;;;;;;;5.50;5.10;;;;;;;;;;5073983;28;24415;-45
2022/05/14 03:09:23;;;;;;;5.60;5.10;;;;;;;;;;5079111;28;24438;-45
2022/05/14 03:11:48;;;;;;;6.85;6.25;;;;;;;;;;5083299;28;24959;-44
2022/05/14 03:14:13;;;;;;;6.00;5.60;;;;;;;;;;5085134;28;24424;-45
2022/05/14 03:16:39;;;;;;;6.23;5.73;;;;;;;;;;5082966;28;25018;-44
2022/05/14 03:19:04;;;;;;;6.50;6.00;;;;;;;;;;5083900;28;24414;-44
2022/05/14 03:21:30;;;;;;;5.90;5.40;;;;;;;;;;5076733;28;24433;-44
2022/05/14 03:23:55;;;;;;;5.70;5.30;;;;;;;;;;5079686;28;24433;-45
2022/05/14 03:26:20;;;;;;;5.70;5.20;;;;;;;;;;5074596;28;24944;-45
2022/05/14 03:28:46;;;;;;;6.10;5.60;;;;;;;;;;5076818;28;24893;-44
2022/05/14 03:31:11;;;;;;;5.45;5.05;;;;;;;;;;5083106;28;24483;-45
2022/05/14 03:33:36;;;;;;;6.10;5.60;;;;;;;;;;5085022;28;24540;-45
2022/05/14 03:36:01;;;;;;;6.07;5.40;;;;;;;;;;5081333;28;25029;-45
2022/05/14 03:38:26;;;;;;;5.53;5.13;;;;;;;;;;5083837;28;24557;-44
2022/05/14 03:40:51;;;;;;;5.80;5.40;;;;;;;;;;5077600;28;24445;-45
2022/05/14 03:43:17;;;;;;;5.85;5.35;;;;;;;;;;5074896;28;24510;-45
2022/05/14 03:45:42;;;;;;;5.68;5.28;;;;;;;;;;5079738;28;24844;-45
2022/05/14 03:48:07;;;;;;;5.20;4.90;;;;;;;;;;5083550;28;24421;-45
2022/05/14 03:50:32;;;;;;;6.27;5.67;;;;;;;;;;5082246;28;24988;-45
2022/05/14 03:52:57;;;;;;;6.40;5.90;;;;;;;;;;5083049;28;24421;-45
2022/05/14 03:55:23;;;;;;;6.00;5.60;;;;;;;;;;5079403;28;24514;-45
2022/05/14 03:57:48;;;;;;;5.53;5.10;;;;;;;;;;5081017;28;25006;-46
2022/05/14 04:00:13;;;;;;;5.80;4.85;;;;;;;;;;5079501;28;24510;-46
2022/05/14 04:02:38;;;;;;;5.90;5.40;;;;;;;;;;5080834;28;24513;-45
2022/05/14 04:05:04;;;;;;;6.30;5.80;;;;;;;;;;5082543;28;24499;-45
2022/05/14 04:07:30;;;;;;;5.87;5.40;;;;;;;;;;5083317;28;24443;-45
2022/05/14 04:09:55;;;;;;;5.70;5.30;;;;;;;;;;5083776;28;24441;-45
2022/05/14 04:12:20;;;;;;;7.10;5.30;;;;;;;;;;5082548;28;24588;-45
2022/05/14 04:14:45;;;;;;;5.63;5.07;;;;;;;;;;5083428;28;24792;-46
2022/05/14 04:17:10;;;;;;;6.28;5.68;;;;;;;;;;5083635;28;24451;-45
2022/05/14 04:19:36;;;;;;;5.50;5.00;;;;;;;;;;5084409;28;24518;-46
2022/05/14 04:22:01;;;;;;;5.65;5.15;;;;;;;;;;5081491;28;25512;-44
2022/05/14 04:24:27;;;;;;;5.07;4.67;;;;;;;;;;5085401;28;24528;-45
2022/05/14 04:26:53;;;;;;;5.28;4.82;;;;;;;;;;5082787;28;24422;-45
2022/05/14 04:29:18;;;;;;;6.00;5.50;;;;;;;;;;5081741;28;24421;-45
2022/05/14 04:31:44;;;;;;;5.30;4.90;;;;;;;;;;5082316;28;24434;-45
2022/05/14 04:34:09;;;;;;;5.30;4.90;;;;;;;;;;5083340;28;24553;-45
2022/05/14 04:36:35;;;;;;;5.30;4.80;;;;;;;;;;5084001;28;24418;-44
2022/05/14 04:39:00;;;;;;;5.15;4.65;;;;;;;;;;5080700;28;24410;-45
2022/05/14 04:41:30;;;;;;;5.25;4.85;;;;;;;;;;5080259;28;24426;-45
2022/05/14 04:43:55;;;;;;;5.65;5.15;;;;;;;;;;5084707;28;24491;-45
2022/05/14 04:46:20;;;;;;;4.95;4.55;;;;;;;;;;5085609;28;25296;-45
2022/05/14 04:48:45;;;;;;;5.28;4.80;;;;;;;;;;5083887;28;24449;-45
2022/05/14 04:51:10;;;;;;;5.70;5.20;;;;;;;;;;5083047;28;24417;-45
2022/05/14 04:53:36;;;;;;;5.60;5.10;;;;;;;;;;5084734;28;25045;-45
2022/05/14 04:56:01;;;;;;;5.85;5.35;;;;;;;;;;5082625;28;24457;-45
2022/05/14 04:58:26;;;;;;;5.80;5.30;;;;;;;;;;5084755;28;24422;-46
2022/05/14 05:00:51;;;;;;;4.80;4.50;;;;;;;;;;5081158;28;24960;-45
2022/05/14 05:03:19;;;;;;;4.75;4.35;;;;;;;;;;5083020;28;24513;-46
2022/05/14 05:05:55;;;;;;;4.97;4.47;;;;;;;;;;5074570;28;24980;-45
2022/05/14 05:08:21;;;;;;;4.43;4.03;;;;;;;;;;5079843;28;24434;-45
2022/05/14 05:10:47;;;;;;;4.22;3.92;;;;;;;;;;5083691;28;24484;-45
2022/05/14 05:13:14;;;;;;;4.00;3.70;;;;;;;;;;5084159;28;24426;-45
2022/05/14 05:15:39;;;;;;;4.30;3.90;;;;;;;;;;5081686;28;24431;-45
2022/05/14 05:18:05;;;;;;;3.50;3.20;;;;;;;;;;5082446;28;24425;-45
2022/05/14 05:20:30;;;;;;;3.72;3.30;;;;;;;;;;5085579;28;24982;-45
2022/05/14 05:22:56;;;;;;;3.80;3.45;;;;;;;;;;5071928;28;24467;-45
2022/05/14 05:25:21;;;;;;;3.77;3.00;;;;;;;;;;5079896;28;25002;-46
2022/05/14 05:27:46;;;;;;;4.07;3.10;;;;;;;;;;5086151;28;24424;-46
2022/05/14 05:30:11;;;;;;;4.20;3.20;;;;;;;;;;5085300;28;24487;-46
2022/05/14 05:32:37;;;;;;;3.40;3.10;;;;;;;;;;5089011;28;24443;-45
2022/05/14 05:35:02;;;;;;;3.60;3.30;;;;;;;;;;5085794;28;24437;-45
2022/05/14 05:37:28;;;;;;;3.58;3.28;;;;;;;;;;5086150;28;24827;-45
2022/05/14 05:39:53;;;;;;;3.43;3.20;;;;;;;;;;5086489;28;24429;-45
2022/05/14 05:42:18;;;;;;;4.20;3.50;;;;;;;;;;5084949;28;24417;-45
2022/05/14 05:44:43;;;;;;;3.57;3.23;;;;;;;;;;5084257;28;24426;-45
2022/05/14 05:47:08;;;;;;;3.50;3.20;;;;;;;;;;5082869;28;25085;-45
2022/05/14 05:49:34;;;;;;;4.67;3.63;;;;;;;;;;5084033;28;24440;-45
2022/05/14 05:51:59;;;;;;;4.20;3.80;;;;;;;;;;5085336;28;24432;-45
2022/05/14 05:57:08;;;;;;;3.60;3.30;;;;;;;;;;5078615;28;24425;-45
2022/05/14 05:59:33;;;;;;;3.70;3.10;;;;;;;;;;5085250;28;24423;-45
2022/05/14 06:01:59;;;;;;;3.33;3.03;;;;;;;;;;5079064;28;24422;-46
2022/05/14 06:04:24;;;;;;;2.90;2.70;;;;;;;;;;5081783;28;24422;-45
2022/05/14 06:06:49;;;;;;;3.80;3.50;;;;;;;;;;5080294;28;24836;-45
2022/05/14 06:09:16;;;;;;;3.60;3.30;;;;;;;;;;5082369;28;24422;-45
2022/05/14 06:11:42;;;;;;;3.08;2.88;;;;;;;;;;5083284;28;24457;-45
2022/05/14 06:14:08;;;;;;;3.08;2.88;;;;;;;;;;5079281;28;24522;-45
2022/05/14 06:16:33;;;;;;;3.77;3.00;;;;;;;;;;5074350;28;24437;-45
2022/05/14 06:18:58;;;;;;;2.90;2.60;;;;;;;;;;5082350;28;24956;-45
2022/05/14 06:21:23;;;;;;;2.80;2.60;;;;;;;;;;5076960;28;24582;-45
2022/05/14 06:23:49;;;;;;;2.87;2.40;;;;;;;;;;5080881;28;24410;-45
2022/05/14 06:26:14;;;;;;;2.90;2.70;;;;;;;;;;5083656;28;24425;-49
2022/05/14 06:28:39;;;;;;;3.60;3.30;;;;;;;;;;5077830;28;24434;-45
2022/05/14 06:31:04;;;;;;;3.00;2.60;;;;;;;;;;5084859;28;24438;-45
2022/05/14 06:33:30;;;;;;;2.70;2.50;;;;;;;;;;5084943;28;24401;-45
2022/05/14 06:35:56;;;;;;;4.95;3.63;;;;;;;;;;5080818;28;24438;-46
2022/05/14 06:38:21;;;;;;;3.40;3.10;;;;;;;;;;5075371;28;24429;-45
2022/05/14 06:40:46;;;;;;;5.25;3.22;;;;;;;;;;5080934;28;24507;-45
2022/05/14 06:43:14;;;;;;;3.80;3.50;;;;;;;;;;5077841;28;24978;-45
2022/05/14 06:45:39;;;;;;;3.40;3.10;;;;;;;;;;5076297;28;24428;-45
2022/05/14 06:48:04;;;;;;;3.80;3.50;;;;;;;;;;5086128;28;24436;-45
2022/05/14 06:50:31;;;;;;;3.80;3.40;;;;;;;;;;5081326;28;25104;-45
2022/05/14 06:52:57;;;;;;;3.40;3.10;;;;;;;;;;5080583;28;24422;-45
2022/05/14 06:55:24;;;;;;;3.40;3.00;;;;;;;;;;5079540;28;24465;-45
2022/05/14 06:57:50;;;;;;;4.03;3.10;;;;;;;;;;5084279;28;24769;-45
2022/05/14 07:00:15;;;;;;;3.13;2.90;;;;;;;;;;5074595;28;24452;-45
2022/05/14 07:02:41;;;;;;;3.27;2.93;;;;;;;;;;5085476;28;25053;-45
2022/05/14 07:07:51;;;;;;;4.60;2.97;;;;;;;;;;5079552;28;24413;-45
2022/05/14 07:10:16;;;;;;;3.45;3.08;;;;;;;;;;5075546;28;24410;-47
2022/05/14 07:12:41;;;;;;;3.07;2.77;;;;;;;;;;5084864;28;24501;-45
2022/05/14 07:15:07;;;;;;;3.38;2.80;;;;;;;;;;5071870;28;24996;-46
2022/05/14 07:17:32;;;;;;;3.93;3.20;;;;;;;;;;5077417;28;24418;-45
2022/05/14 07:19:57;;;;;;;2.70;2.50;;;;;;;;;;5081285;28;24963;-45
2022/05/14 07:22:22;;;;;;;4.30;3.40;;;;;;;;;;5068146;28;24506;-45
2022/05/14 07:24:48;;;;;;;3.28;2.97;;;;;;;;;;5072999;28;24983;-45
2022/05/14 07:27:13;;;;;;;3.60;3.30;;;;;;;;;;5080323;28;24487;-46
2022/05/14 07:29:43;;;;;;;3.40;3.10;;;;;;;;;;5081364;28;24425;-46
2022/05/14 07:32:09;;;;;;;3.70;3.40;;;;;;;;;;5079623;28;24599;-46
2022/05/14 07:34:34;;;;;;;3.40;3.10;;;;;;;;;;5081069;28;24430;-46
2022/05/14 07:37:01;;;;;;;4.70;3.90;;;;;;;;;;5081972;28;24417;-46
2022/05/14 07:39:29;;;;;;;5.40;4.50;;;;;;;;;;5075042;28;24422;-46
2022/05/14 07:41:55;;;;;;;3.92;3.50;;;;;;;;;;5066867;28;24410;-46
2022/05/14 07:44:22;;;;;;;4.90;4.40;;;;;;;;;;5074622;28;24505;-46
2022/05/14 07:46:49;;;;;;;4.03;3.53;;;;;;;;;;5065122;28;25033;-46
2022/05/14 07:49:14;;;;;;;5.50;3.40;;;;;;;;;;5076584;28;24458;-46
2022/05/14 07:51:40;;;;;;;4.60;4.20;;;;;;;;;;5084984;28;24425;-46
2022/05/14 07:54:05;;;;;;;5.77;4.47;;;;;;;;;;5076242;28;24419;-46
2022/05/14 07:56:31;;;;;;;5.70;5.10;;;;;;;;;;5082521;28;24434;-46
2022/05/14 07:58:56;;;;;;;5.77;4.57;;;;;;;;;;5085746;28;24743;-46
2022/05/14 08:01:21;;;;;;;8.20;5.75;;;;;;;;;;5085031;28;24948;-45
2022/05/14 08:03:48;;;;;;;7.47;6.80;;;;;;;;;;5082614;28;24475;-44
2022/05/14 08:06:15;;;;;;;8.98;6.40;;;;;;;;;;5083223;28;24595;-44
2022/05/14 08:08:40;;;;;;;6.95;6.32;;;;;;;;;;5082442;28;24968;-44
2022/05/14 08:11:05;;;;;;;7.30;6.25;;;;;;;;;;5083293;28;24457;-44
2022/05/14 08:13:34;;;;;;;6.40;5.73;;;;;;;;;;5083548;28;24422;-44
2022/05/14 08:15:59;;;;;;;6.32;5.80;;;;;;;;;;5086051;28;24983;-44
2022/05/14 08:18:24;;;;;;;5.97;5.47;;;;;;;;;;5073130;28;24476;-44
2022/05/14 08:20:51;;;;;;;7.73;6.17;;;;;;;;;;5082578;28;24994;-43
2022/05/14 08:26:01;;;;;;;7.05;6.00;;;;;;;;;;5080093;28;24422;-44
2022/05/14 08:28:27;;;;;;;7.03;5.30;;;;;;;;;;5081941;28;24426;-44
2022/05/14 08:30:52;;;;;;;5.65;5.15;;;;;;;;;;5083609;28;25027;-44
2022/05/14 08:33:19;;;;;;;6.40;5.80;;;;;;;;;;5083188;28;24418;-44
2022/05/14 08:35:44;;;;;;;5.60;5.10;;;;;;;;;;5080788;28;24449;-44
2022/05/14 08:38:11;;;;;;;6.55;5.88;;;;;;;;;;5080498;28;24496;-44
2022/05/14 08:40:41;;;;;;;6.00;5.60;;;;;;;;;;5083030;28;24429;-44
2022/05/14 08:43:14;;;;;;;6.25;5.55;;;;;;;;;;5084604;28;24425;-45
2022/05/14 08:45:39;;;;;;;6.20;5.32;;;;;;;;;;5081493;28;24509;-44
2022/05/14 08:48:15;;;;;;;8.27;5.30;;;;;;;;;;5078371;28;24586;-44
2022/05/14 08:50:41;;;;;;;5.88;5.20;;;;;;;;;;5083277;28;24444;-44
2022/05/14 08:53:11;;;;;;;6.07;5.30;;;;;;;;;;5083853;28;24457;-45
2022/05/14 08:55:40;;;;;;;5.10;4.70;;;;;;;;;;5084931;28;24426;-45
2022/05/14 08:58:13;;;;;;;6.10;5.45;;;;;;;;;;5074144;28;24422;-45
2022/05/14 09:00:38;;;;;;;5.53;4.97;;;;;;;;;;5072384;28;24397;-45
2022/05/14 09:03:03;;;;;;;6.30;5.70;;;;;;;;;;5081643;28;24418;-45
2022/05/14 09:05:30;;;;;;;5.75;5.10;;;;;;;;;;5083828;28;24425;-45
2022/05/14 09:07:56;;;;;;;6.50;5.88;;;;;;;;;;5076452;28;24525;-46
2022/05/14 09:10:32;;;;;;;6.50;6.00;;;;;;;;;;5089703;28;24999;-45
2022/05/14 09:12:58;;;;;;;5.72;5.20;;;;;;;;;;5084583;28;24527;-45
2022/05/14 09:15:24;;;;;;;5.70;5.20;;;;;;;;;;5069568;28;24492;-45
2022/05/14 09:18:01;;;;;;;7.53;5.50;;;;;;;;;;5088636;28;24413;-45
2022/05/14 09:20:26;;;;;;;5.47;4.97;;;;;;;;;;5083653;28;24521;-46
2022/05/14 09:22:55;;;;;;;6.00;5.40;;;;;;;;;;5087540;28;25431;-44
2022/05/14 09:25:28;;;;;;;7.13;5.80;;;;;;;;;;5088149;28;24416;-45
2022/05/14 09:27:55;;;;;;;6.05;5.55;;;;;;;;;;5088313;28;24434;-45
2022/05/14 09:30:47;;;;;;;8.10;5.85;;;;;;;;;;5088696;28;24438;-45
2022/05/14 09:33:42;;;;;;;6.03;5.43;;;;;;;;;;5084695;28;24448;-45
2022/05/14 09:36:13;;;;;;;6.10;5.60;;;;;;;;;;5070971;28;24479;-45
2022/05/14 09:38:38;;;;;;;5.35;4.95;;;;;;;;;;5087394;28;24415;-45
2022/05/14 09:41:11;;;;;;;5.97;5.23;;;;;;;;;;5088262;28;24846;-45
2022/05/14 09:43:37;;;;;;;5.30;4.90;;;;;;;;;;5088198;28;24552;-45
2022/05/14 09:46:07;;;;;;;4.97;4.47;;;;;;;;;;5088370;28;24509;-45
2022/05/14 09:48:47;;;;;;;6.13;5.53;;;;;;;;;;5088577;28;24410;-45
2022/05/14 09:51:12;;;;;;;6.97;6.15;;;;;;;;;;5086341;28;24972;-45
2022/05/14 09:53:43;;;;;;;7.50;6.50;;;;;;;;;;5086867;28;24458;-45
2022/05/14 09:56:26;;;;;;;6.80;6.20;;;;;;;;;;5087478;28;24487;-45
2022/05/14 09:59:10;;;;;;;7.07;6.40;;;;;;;;;;5088233;28;25299;-45
2022/05/14 10:02:06;;;;;;;7.25;6.55;;;;;;;;;;5084587;28;24831;-45
2022/05/14 10:04:50;;;;;;;5.77;5.20;;;;;;;;;;5087063;28;24434;-45
2022/05/14 10:07:21;;;;;;;7.20;6.50;;;;;;;;;;5088812;28;24861;-45
2022/05/14 10:09:55;;;;;;;6.28;5.40;;;;;;;;;;5081500;28;24430;-45
2022/05/14 10:12:31;;;;;;;6.20;5.60;;;;;;;;;;5088243;28;24421;-45
2022/05/14 10:15:08;;;;;;;6.15;5.65;;;;;;;;;;5086838;28;24469;-45
2022/05/14 10:17:40;;;;;;;7.33;6.50;;;;;;;;;;5087486;28;24581;-46
2022/05/14 10:20:11;;;;;;;8.30;6.60;;;;;;;;;;5086525;28;25077;-45
2022/05/14 10:28:40;;;;;;;8.73;6.50;;;;;;;;;;5087384;28;24496;-45
2022/05/14 10:31:14;;;;;;;7.57;6.20;;;;;;;;;;5076857;28;24561;-43
2022/05/14 10:33:39;;;;;;;8.50;6.20;;;;;;;;;;5086937;28;24956;-44
2022/05/14 10:36:23;;;;;;;7.30;6.60;;;;;;;;;;5086771;28;24489;-45
2022/05/14 10:38:53;;;;;;;5.85;5.25;;;;;;;;;;5087486;28;24531;-44
2022/05/14 10:41:38;;;;;;;6.90;6.20;;;;;;;;;;5086730;28;24417;-45
2022/05/14 10:44:10;;;;;;;5.20;4.70;;;;;;;;;;5086799;28;24472;-45
2022/05/14 10:46:35;;;;;;;6.07;5.57;;;;;;;;;;5086835;28;24978;-45
2022/05/14 10:49:06;;;;;;;6.40;5.80;;;;;;;;;;5087239;28;24495;-44
2022/05/14 10:51:34;;;;;;;6.45;5.00;;;;;;;;;;5079644;28;24410;-45
2022/05/14 10:54:01;;;;;;;5.07;4.50;;;;;;;;;;5069477;28;24422;-45
2022/05/14 10:56:33;;;;;;;5.27;4.77;;;;;;;;;;5087624;28;24457;-45
2022/05/14 10:59:11;;;;;;;5.00;4.50;;;;;;;;;;5087858;28;24966;-45
2022/05/14 11:01:42;;;;;;;6.07;5.00;;;;;;;;;;5086811;28;24398;-45
2022/05/14 11:04:13;;;;;;;6.55;5.35;;;;;;;;;;5088097;28;24425;-45
2022/05/14 11:06:50;;;;;;;4.40;4.00;;;;;;;;;;5087689;28;24398;-45
2022/05/14 11:09:16;;;;;;;5.20;4.55;;;;;;;;;;5086930;28;24990;-44
2022/05/14 11:11:46;;;;;;;4.85;4.45;;;;;;;;;;5080317;28;24422;-45
2022/05/14 11:14:11;;;;;;;7.07;6.47;;;;;;;;;;5077334;28;25037;-45
2022/05/14 11:16:41;;;;;;;6.03;5.10;;;;;;;;;;5082600;28;24452;-45
2022/05/14 11:19:07;;;;;;;8.30;5.37;;;;;;;;;;5078318;28;24976;-45
2022/05/14 11:21:38;;;;;;;6.13;5.23;;;;;;;;;;5084968;28;24469;-45
2022/05/14 11:24:04;;;;;;;6.63;5.07;;;;;;;;;;5087594;28;24403;-45
2022/05/14 11:26:30;;;;;;;5.78;4.10;;;;;;;;;;5086825;28;24551;-45
2022/05/14 11:29:09;;;;;;;8.43;4.70;;;;;;;;;;5083342;28;24422;-45
2022/05/14 11:31:39;;;;;;;4.40;4.00;;;;;;;;;;5081943;28;25203;-45
2022/05/14 11:34:14;;;;;;;4.43;4.03;;;;;;;;;;5076118;28;25328;-46
2022/05/14 11:36:48;;;;;;;7.65;4.55;;;;;;;;;;5076070;28;24465;-45
2022/05/14 11:39:22;;;;;;;5.47;4.35;;;;;;;;;;5077166;28;24483;-45
2022/05/14 11:41:48;;;;;;;6.60;4.45;;;;;;;;;;5076092;28;24423;-46
2022/05/14 11:44:25;;;;;;;4.93;3.97;;;;;;;;;;5077113;28;24418;-45
2022/05/14 11:46:50;;;;;;;5.70;4.10;;;;;;;;;;5074860;28;24535;-45
2022/05/14 11:49:26;;;;;;;4.93;3.80;;;;;;;;;;5075777;28;25538;-45
2022/05/14 11:51:51;;;;;;;4.60;3.78;;;;;;;;;;5082223;28;24556;-44
2022/05/14 11:54:32;;;;;;;4.40;4.00;;;;;;;;;;5079646;28;24536;-46
2022/05/14 11:57:08;;;;;;;4.18;3.65;;;;;;;;;;5076935;28;24789;-45
2022/05/14 11:59:52;;;;;;;4.05;3.63;;;;;;;;;;5081963;28;24423;-46
2022/05/14 12:02:29;;;;;;;4.50;3.75;;;;;;;;;;5082478;28;24777;-44
2022/05/14 12:04:56;;;;;;;4.93;3.35;;;;;;;;;;5081508;28;24445;-45
2022/05/14 12:07:44;;;;;;;3.90;3.53;;;;;;;;;;5084125;28;24476;-45
2022/05/14 12:10:22;;;;;;;3.50;3.10;;;;;;;;;;5075742;28;24427;-45
2022/05/14 12:12:59;;;;;;;5.20;3.10;;;;;;;;;;5084577;28;24990;-45
2022/05/14 12:15:24;;;;;;;4.57;3.60;;;;;;;;;;5079980;28;24449;-45
2022/05/14 12:17:51;;;;;;;4.90;2.90;;;;;;;;;;5081782;28;24418;-45
2022/05/14 12:20:18;;;;;;;5.15;3.00;;;;;;;;;;5080321;28;24968;-45
2022/05/14 12:22:50;;;;;;;4.20;2.80;;;;;;;;;;5077685;28;24504;-45
2022/05/14 12:25:15;;;;;;;3.78;3.13;;;;;;;;;;5080630;28;24517;-48
2022/05/14 12:27:48;;;;;;;4.28;2.90;;;;;;;;;;5084800;28;24506;-45
2022/05/14 12:30:13;;;;;;;4.45;2.90;;;;;;;;;;5084843;28;24453;-45
2022/05/14 12:35:32;;;;;;;4.60;3.10;;;;;;;;;;5084745;28;24437;-45
2022/05/14 12:37:58;;;;;;;5.00;3.38;;;;;;;;;;5078832;28;24522;-45
2022/05/14 12:40:35;;;;;;;4.13;3.20;;;;;;;;;;5090726;28;24429;-45
2022/05/14 12:43:01;;;;;;;6.18;3.30;;;;;;;;;;5088872;28;24429;-45
2022/05/14 12:45:33;;;;;;;7.85;3.80;;;;;;;;;;5080773;28;24429;-45
2022/05/14 12:48:02;;;;;;;4.90;3.25;;;;;;;;;;5085463;28;26190;-45
2022/05/14 12:50:30;;;;;;;6.70;3.42;;;;;;;;;;5086693;28;25248;-45
2022/05/14 12:53:06;;;;;;;4.65;3.50;;;;;;;;;;5085369;28;24422;-45
2022/05/14 12:55:35;;;;;;;4.53;3.20;;;;;;;;;;5086887;28;24975;-46
2022/05/14 12:58:01;;;;;;;6.87;3.70;;;;;;;;;;5088431;28;24868;-45
2022/05/14 13:00:26;;;;;;;6.13;3.78;;;;;;;;;;5085678;28;24966;-45
2022/05/14 13:02:52;;;;;;;4.13;3.00;;;;;;;;;;5083904;28;24432;-44
2022/05/14 13:05:17;;;;;;;6.03;4.20;;;;;;;;;;5089758;28;24450;-45
2022/05/14 13:07:44;;;;;;;5.60;3.50;;;;;;;;;;5089108;28;24518;-44
2022/05/14 13:10:09;;;;;;;5.10;3.92;;;;;;;;;;5086337;28;24781;-44
2022/05/14 13:12:34;;;;;;;7.30;4.40;;;;;;;;;;5084938;28;24990;-45
2022/05/14 13:15:03;;;;;;;4.60;3.77;;;;;;;;;;5087576;28;24444;-45
2022/05/14 13:17:30;;;;;;;6.65;3.55;;;;;;;;;;5085328;28;24431;-44
2022/05/14 13:19:56;;;;;;;5.07;3.30;;;;;;;;;;5087870;28;24976;-44
2022/05/14 13:22:33;;;;;;;4.65;3.50;;;;;;;;;;5085257;28;25059;-44
2022/05/14 13:25:02;;;;;;;6.70;3.40;;;;;;;;;;5086837;28;24996;-44
2022/05/14 13:27:29;;;;;;;5.03;3.20;;;;;;;;;;5084403;28;24479;-44
2022/05/14 13:30:20;;;;;;;4.50;3.10;;;;;;;;;;5085619;28;24521;-44
2022/05/14 13:32:45;;;;;;;4.10;3.60;;;;;;;;;;5043503;28;24666;-44
2022/05/14 13:38:05;;;;;;;4.65;3.25;;;;;;;;;;5079176;28;24429;-44
2022/05/14 13:40:32;;;;;;;5.57;3.42;;;;;;;;;;5083908;28;25242;-45
2022/05/14 13:43:08;;;;;;;5.53;3.75;;;;;;;;;;5085380;28;24522;-44
2022/05/14 13:45:35;;;;;;;4.45;3.25;;;;;;;;;;5082980;28;24438;-44
2022/05/14 13:48:12;;;;;;;5.50;3.50;;;;;;;;;;5083447;28;24476;-44
2022/05/14 13:50:42;;;;;;;7.10;3.60;;;;;;;;;;5081743;28;24418;-45
2022/05/14 13:53:19;;;;;;;4.57;3.50;;;;;;;;;;5078473;28;24422;-45
2022/05/14 13:55:44;;;;;;;5.10;3.40;;;;;;;;;;5081365;28;24422;-45
2022/05/14 13:58:27;;;;;;;3.90;3.20;;;;;;;;;;5080332;28;24503;-44
2022/05/14 14:00:54;;;;;;;4.57;3.22;;;;;;;;;;5084941;28;24429;-44
2022/05/14 14:03:22;;;;;;;5.40;4.00;;;;;;;;;;5088664;28;24395;-45
2022/05/14 14:05:48;;;;;;;6.35;4.30;;;;;;;;;;5088502;28;24947;-45
2022/05/14 14:08:15;;;;;;;4.97;4.20;;;;;;;;;;5089010;28;24408;-44
2022/05/14 14:10:40;;;;;;;5.32;3.60;;;;;;;;;;5088602;28;24417;-45
2022/05/14 14:13:06;;;;;;;5.03;3.60;;;;;;;;;;5088864;28;24757;-44
2022/05/14 14:15:35;;;;;;;5.32;3.90;;;;;;;;;;5088076;28;24975;-44
2022/05/14 14:18:00;;;;;;;4.40;4.00;;;;;;;;;;5086530;28;24467;-45
2022/05/14 14:20:27;;;;;;;5.00;3.50;;;;;;;;;;5088362;28;24394;-45
2022/05/14 14:22:52;;;;;;;3.60;3.30;;;;;;;;;;5088435;28;24768;-44
2022/05/14 14:25:18;;;;;;;6.00;3.30;;;;;;;;;;5088296;28;24402;-44
2022/05/14 14:27:44;;;;;;;4.53;3.20;;;;;;;;;;5087993;28;24399;-44
2022/05/14 14:30:11;;;;;;;4.20;3.00;;;;;;;;;;5088498;28;24422;-44
2022/05/14 14:32:37;;;;;;;5.85;3.67;;;;;;;;;;5088105;28;24386;-44
2022/05/14 14:35:03;;;;;;;4.78;3.00;;;;;;;;;;5088248;28;24425;-44
2022/05/14 14:37:28;;;;;;;3.60;3.30;;;;;;;;;;5088087;28;24398;-44
2022/05/14 14:39:54;;;;;;;4.40;3.27;;;;;;;;;;5087779;28;25245;-44
2022/05/14 14:42:20;;;;;;;4.72;3.70;;;;;;;;;;5088059;28;24920;-44
2022/05/14 14:44:45;;;;;;;7.53;4.00;;;;;;;;;;5088055;28;24406;-44
2022/05/14 14:47:10;;;;;;;5.53;3.60;;;;;;;;;;5087852;28;24398;-45
2022/05/14 14:49:36;;;;;;;4.90;3.60;;;;;;;;;;5087977;28;24383;-51
2022/05/14 14:52:01;;;;;;;5.23;3.40;;;;;;;;;;5087645;28;24390;-45
2022/05/14 14:54:26;;;;;;;5.00;3.60;;;;;;;;;;5087460;28;24772;-44
2022/05/14 14:56:51;;;;;;;5.03;3.65;;;;;;;;;;5087720;28;24432;-45
2022/05/14 14:59:16;;;;;;;4.30;3.60;;;;;;;;;;5087453;28;25227;-44
2022/05/14 15:01:46;;;;;;;4.80;3.70;;;;;;;;;;5087657;28;24792;-44
2022/05/14 15:04:13;;;;;;;6.00;4.05;;;;;;;;;;5087520;28;24390;-45
2022/05/14 15:06:39;;;;;;;3.90;3.30;;;;;;;;;;5087421;28;24518;-45
2022/05/14 15:09:05;;;;;;;6.33;3.70;;;;;;;;;;5087609;28;24428;-45
2022/05/14 15:11:30;;;;;;;6.25;3.90;;;;;;;;;;5087473;28;24413;-45